Time;durP1;ratioP1;P1;durP2;ratioP2;P2;SDS_P1;SDS_P2;PMS_P1;PMS_P2;Temp;Humidity;BMP_temperature;BMP_pressure;BME280_temperature;BME280_humidity;BME280_pressure;Samples;Min_cycle;Max_cycle;Signal;HPM_P1;HPM_P2
2023/09/20 00:04:49;;;;;;;2.27;2.07;;;18.40;39.60;;;;;;10255373;28;20227;-72
2023/09/20 00:09:52;;;;;;;2.20;2.00;;;18.30;40.00;;;;;;10250380;28;20240;-72
2023/09/20 00:14:55;;;;;;;3.00;2.10;;;18.20;39.70;;;;;;10254181;28;20235;-72
2023/09/20 00:20:06;;;;;;;2.97;2.33;;;18.20;39.70;;;;;;10254595;28;20251;-72
2023/09/20 00:25:10;;;;;;;2.83;2.07;;;18.20;40.00;;;;;;10258544;28;20765;-72
2023/09/20 00:30:17;;;;;;;3.70;1.80;;;18.10;39.70;;;;;;10256108;28;20230;-72
2023/09/20 00:35:23;;;;;;;2.10;1.90;;;18.10;39.90;;;;;;10262141;28;20231;-72
2023/09/20 00:40:28;;;;;;;3.07;2.07;;;18.00;40.00;;;;;;10249905;28;20240;-71
2023/09/20 00:45:32;;;;;;;2.27;1.80;;;18.00;39.80;;;;;;10257102;28;20298;-71
2023/09/20 00:50:37;;;;;;;2.90;2.10;;;18.00;39.70;;;;;;10250487;28;20236;-72
2023/09/20 00:55:42;;;;;;;2.40;2.20;;;18.00;39.90;;;;;;10254508;28;20235;-71
2023/09/20 01:00:47;;;;;;;2.50;2.30;;;18.00;39.80;;;;;;10252946;28;21136;-71
2023/09/20 01:05:51;;;;;;;2.20;2.00;;;18.00;39.80;;;;;;10257051;28;20228;-72
2023/09/20 01:10:55;;;;;;;2.00;1.73;;;17.90;40.00;;;;;;10255117;28;20224;-72
2023/09/20 01:16:01;;;;;;;2.70;2.13;;;17.90;39.80;;;;;;10259354;28;20242;-71
2023/09/20 01:21:05;;;;;;;2.80;2.27;;;17.80;39.60;;;;;;10247785;28;21079;-72
2023/09/20 01:26:11;;;;;;;2.33;2.17;;;17.80;40.60;;;;;;10255221;28;20331;-71
2023/09/20 01:31:15;;;;;;;2.20;2.00;;;17.60;40.00;;;;;;10252950;28;20224;-71
2023/09/20 01:36:18;;;;;;;2.40;2.20;;;17.50;39.80;;;;;;10253400;28;21704;-72
2023/09/20 01:41:23;;;;;;;2.23;2.03;;;17.40;40.00;;;;;;10249083;28;20439;-71
2023/09/20 01:46:26;;;;;;;1.80;1.70;;;17.20;40.40;;;;;;10248112;28;20656;-71
2023/09/20 01:51:29;;;;;;;1.83;1.73;;;17.10;40.40;;;;;;10250551;28;20236;-71
2023/09/20 01:56:34;;;;;;;2.50;2.30;;;17.10;40.50;;;;;;10250760;28;20291;-71
2023/09/20 02:01:38;;;;;;;1.90;1.80;;;17.10;40.90;;;;;;10266092;28;20238;-71
2023/09/20 02:06:42;;;;;;;1.70;1.60;;;17.00;40.30;;;;;;10261999;28;20237;-71
2023/09/20 02:11:48;;;;;;;2.10;2.00;;;16.90;40.60;;;;;;10262571;28;20247;-71
2023/09/20 02:16:51;;;;;;;2.27;2.07;;;16.90;41.10;;;;;;10264681;28;20323;-72
2023/09/20 02:21:55;;;;;;;2.33;2.10;;;16.80;40.70;;;;;;10261957;28;20258;-71
2023/09/20 02:27:00;;;;;;;2.90;2.20;;;16.80;40.90;;;;;;10255684;28;20246;-71
2023/09/20 02:32:04;;;;;;;2.13;2.03;;;16.80;41.00;;;;;;10257863;28;20728;-72
2023/09/20 02:37:07;;;;;;;2.20;2.03;;;16.70;40.80;;;;;;10259778;28;20240;-70
2023/09/20 02:42:13;;;;;;;2.60;2.20;;;16.60;40.80;;;;;;10254088;28;20701;-71
2023/09/20 02:47:24;;;;;;;1.93;1.83;;;16.60;41.40;;;;;;10252171;28;20227;-71
2023/09/20 02:52:27;;;;;;;2.10;1.97;;;16.60;41.00;;;;;;10259775;28;20740;-71
2023/09/20 02:57:32;;;;;;;2.03;1.90;;;16.70;41.20;;;;;;10252452;28;20243;-72
2023/09/20 03:02:35;;;;;;;2.03;1.93;;;16.70;41.40;;;;;;10260664;28;20235;-71
2023/09/20 03:07:39;;;;;;;1.50;1.40;;;16.80;41.00;;;;;;10255927;28;20347;-71
2023/09/20 03:12:46;;;;;;;2.10;1.90;;;16.80;40.90;;;;;;10254282;28;20236;-71
2023/09/20 03:17:51;;;;;;;2.20;2.10;;;16.90;41.00;;;;;;10254616;28;20270;-72
2023/09/20 03:22:58;;;;;;;1.60;1.50;;;16.90;40.40;;;;;;10253108;28;20237;-72
2023/09/20 03:28:04;;;;;;;1.77;1.67;;;16.70;40.30;;;;;;10258095;28;20274;-72
2023/09/20 03:33:08;;;;;;;2.20;2.00;;;16.70;41.40;;;;;;10254300;28;20224;-70
2023/09/20 03:38:15;;;;;;;2.00;1.80;;;16.60;40.60;;;;;;10259828;28;20234;-71
2023/09/20 03:43:19;;;;;;;1.73;1.63;;;16.60;40.50;;;;;;10255232;28;20314;-72
2023/09/20 03:48:22;;;;;;;2.10;1.90;;;16.50;40.80;;;;;;10248136;28;20800;-72
2023/09/20 03:53:26;;;;;;;1.87;1.77;;;16.50;40.80;;;;;;10258854;28;20772;-71
2023/09/20 03:58:30;;;;;;;1.70;1.60;;;16.40;40.90;;;;;;10259575;28;20235;-71
2023/09/20 04:03:35;;;;;;;2.17;2.07;;;16.50;41.10;;;;;;10248437;28;20234;-70
2023/09/20 04:08:38;;;;;;;3.57;1.80;;;16.50;40.90;;;;;;10249300;28;20235;-71
2023/09/20 04:13:43;;;;;;;2.37;1.90;;;16.50;40.70;;;;;;10248655;28;20224;-71
2023/09/20 04:18:48;;;;;;;3.83;2.20;;;16.60;40.70;;;;;;10248880;28;20238;-71
2023/09/20 04:23:51;;;;;;;3.13;2.50;;;16.60;40.40;;;;;;10252197;28;20711;-72
2023/09/20 04:28:58;;;;;;;2.30;2.07;;;16.50;40.00;;;;;;10249077;28;20227;-72
2023/09/20 04:34:01;;;;;;;2.27;2.07;;;16.40;40.40;;;;;;10247636;28;20646;-71
2023/09/20 04:39:06;;;;;;;1.90;1.80;;;16.30;40.60;;;;;;10253603;28;20682;-72
2023/09/20 04:44:10;;;;;;;2.30;2.10;;;16.20;40.60;;;;;;10246233;28;20235;-70
2023/09/20 04:49:14;;;;;;;2.53;2.10;;;16.10;40.80;;;;;;10250249;28;20224;-70
2023/09/20 04:54:19;;;;;;;2.40;2.07;;;16.10;40.90;;;;;;10255104;28;20318;-71
2023/09/20 04:59:24;;;;;;;1.97;1.80;;;16.10;40.90;;;;;;10257001;28;20240;-71
2023/09/20 05:04:27;;;;;;;2.00;1.90;;;16.10;41.10;;;;;;10253633;28;20255;-70
2023/09/20 05:09:32;;;;;;;2.00;1.80;;;16.20;40.80;;;;;;10253945;28;20228;-73
2023/09/20 05:14:36;;;;;;;1.77;1.57;;;16.20;40.60;;;;;;10248747;28;20234;-71
2023/09/20 05:19:40;;;;;;;4.17;1.80;;;16.20;40.80;;;;;;10251605;28;20235;-71
2023/09/20 05:24:43;;;;;;;2.67;1.90;;;16.20;40.60;;;;;;10253875;28;20245;-71
2023/09/20 05:29:50;;;;;;;2.00;1.80;;;16.10;40.60;;;;;;10254271;28;20614;-71
2023/09/20 05:34:53;;;;;;;2.00;1.90;;;16.00;41.60;;;;;;10263772;28;20231;-71
2023/09/20 05:39:57;;;;;;;2.17;1.97;;;16.10;41.30;;;;;;10266999;28;20233;-71
2023/09/20 05:45:02;;;;;;;2.80;2.37;;;16.00;41.20;;;;;;10266691;28;20222;-71
2023/09/20 05:50:06;;;;;;;2.37;2.17;;;15.90;41.70;;;;;;10262191;28;20225;-73
2023/09/20 05:55:13;;;;;;;2.23;1.97;;;15.80;41.80;;;;;;10255947;28;20224;-71
2023/09/20 06:00:22;;;;;;;2.20;2.10;;;15.80;42.20;;;;;;10262203;28;20226;-71
2023/09/20 06:05:25;;;;;;;4.23;2.03;;;15.80;42.70;;;;;;10261382;28;20776;-71
2023/09/20 06:10:29;;;;;;;2.70;1.80;;;15.90;42.50;;;;;;10263773;28;20232;-71
2023/09/20 06:15:34;;;;;;;3.10;2.10;;;16.00;42.50;;;;;;10266399;28;20231;-73
2023/09/20 06:20:39;;;;;;;2.50;2.30;;;16.10;43.10;;;;;;10270707;28;20231;-73
2023/09/20 06:25:43;;;;;;;2.73;2.30;;;16.30;43.10;;;;;;10274705;28;20234;-73
2023/09/20 06:30:50;;;;;;;3.43;2.37;;;16.30;43.30;;;;;;10271128;28;20633;-73
2023/09/20 06:35:55;;;;;;;2.80;2.60;;;16.50;43.80;;;;;;10268449;28;21397;-73
2023/09/20 06:40:58;;;;;;;2.60;2.40;;;16.50;43.50;;;;;;10272986;28;20232;-73
2023/09/20 06:46:03;;;;;;;5.67;2.60;;;16.70;43.60;;;;;;10274858;28;20851;-73
2023/09/20 06:51:09;;;;;;;4.03;3.60;;;16.80;44.40;;;;;;10266098;28;20231;-73
2023/09/20 06:56:12;;;;;;;4.33;3.93;;;16.90;44.00;;;;;;10275268;28;20320;-72
2023/09/20 07:01:17;;;;;;;4.20;3.80;;;16.90;44.20;;;;;;10275594;28;20263;-72
2023/09/20 07:06:20;;;;;;;3.80;3.50;;;17.10;45.20;;;;;;10274618;28;20223;-72
2023/09/20 07:11:24;;;;;;;3.60;3.27;;;17.20;44.70;;;;;;10270266;28;20882;-73
2023/09/20 07:16:30;;;;;;;4.57;3.20;;;17.30;45.10;;;;;;10268412;28;20239;-72
2023/09/20 07:21:37;;;;;;;3.37;3.07;;;17.40;45.50;;;;;;10271784;28;20232;-72
2023/09/20 07:26:40;;;;;;;3.70;3.40;;;17.60;45.20;;;;;;10269043;28;20235;-73
2023/09/20 07:31:46;;;;;;;4.10;3.23;;;17.80;45.40;;;;;;10271363;28;20726;-72
2023/09/20 07:36:49;;;;;;;3.50;3.20;;;18.00;46.10;;;;;;10268969;28;20227;-72
2023/09/20 07:41:53;;;;;;;3.10;2.90;;;18.20;45.60;;;;;;10266644;28;20591;-72
2023/09/20 07:46:58;;;;;;;3.67;2.80;;;18.40;45.70;;;;;;10265998;28;20239;-72
2023/09/20 07:52:04;;;;;;;2.90;2.70;;;18.70;46.50;;;;;;10266026;28;20227;-72
2023/09/20 07:57:10;;;;;;;3.03;2.83;;;19.00;45.90;;;;;;10269593;28;20227;-72
2023/09/20 08:02:17;;;;;;;4.03;2.83;;;19.30;45.90;;;;;;10265805;28;20220;-72
2023/09/20 08:07:21;;;;;;;2.80;2.43;;;19.60;45.80;;;;;;10270247;28;20250;-73
2023/09/20 08:12:24;;;;;;;2.63;2.33;;;19.90;46.10;;;;;;10268392;28;20327;-72
2023/09/20 09:00:46;;;;;;;1.70;1.60;;;22.70;42.00;;;;;;10265879;28;20236;-73
2023/09/20 09:05:53;;;;;;;1.90;1.80;;;23.00;41.50;;;;;;10262074;28;20322;-73
2023/09/20 09:10:57;;;;;;;2.63;2.30;;;23.30;40.50;;;;;;10269133;28;20231;-73
2023/09/20 09:16:01;;;;;;;2.40;1.80;;;23.60;40.30;;;;;;10275785;28;20318;-73
2023/09/20 09:21:06;;;;;;;1.77;1.63;;;23.80;39.80;;;;;;10280691;28;20254;-73
2023/09/20 09:26:09;;;;;;;2.20;2.00;;;24.10;38.70;;;;;;10268486;28;20721;-73
2023/09/20 09:31:14;;;;;;;1.80;1.70;;;24.30;38.90;;;;;;10283180;28;20231;-73
2023/09/20 09:36:19;;;;;;;1.90;1.80;;;24.50;38.50;;;;;;10281026;28;20709;-73
2023/09/20 09:41:22;;;;;;;1.70;1.60;;;24.70;37.10;;;;;;10277023;28;20242;-73
2023/09/20 09:46:25;;;;;;;1.87;1.60;;;24.90;37.60;;;;;;10280970;28;20239;-73
2023/09/20 09:51:32;;;;;;;1.80;1.70;;;25.00;37.40;;;;;;10276956;28;20239;-73
2023/09/20 09:56:37;;;;;;;1.70;1.60;;;25.20;36.20;;;;;;10273023;28;20231;-73
2023/09/20 10:01:42;;;;;;;1.53;1.47;;;25.40;36.60;;;;;;10280389;28;20241;-73
2023/09/20 10:06:54;;;;;;;1.50;1.40;;;25.60;36.20;;;;;;10276922;28;20232;-73
2023/09/20 10:11:58;;;;;;;1.57;1.47;;;25.70;34.40;;;;;;10278401;28;20724;-73
2023/09/20 10:17:03;;;;;;;1.40;1.30;;;25.90;35.30;;;;;;10274643;28;20326;-73
2023/09/20 10:22:10;;;;;;;2.70;1.50;;;26.00;34.40;;;;;;10256555;28;20225;-73
2023/09/20 10:27:19;;;;;;;1.67;1.57;;;26.10;33.70;;;;;;10274688;28;20236;-73
2023/09/20 10:32:23;;;;;;;1.67;1.47;;;26.30;33.90;;;;;;10272847;28;20331;-73
2023/09/20 10:37:28;;;;;;;1.67;1.57;;;26.40;35.00;;;;;;10274272;28;20236;-73
2023/09/20 10:42:32;;;;;;;1.50;1.40;;;26.50;34.00;;;;;;10272958;28;20727;-73
2023/09/20 10:47:37;;;;;;;1.77;1.60;;;26.60;34.00;;;;;;10271955;28;20314;-73
2023/09/20 10:52:57;;;;;;;1.70;1.60;;;26.60;33.70;;;;;;10268804;28;20236;-73
2023/09/20 10:58:01;;;;;;;1.67;1.57;;;26.70;32.40;;;;;;10258034;28;20224;-73
2023/09/20 11:03:07;;;;;;;1.57;1.47;;;26.80;33.10;;;;;;10262813;28;20578;-72
2023/09/20 11:08:14;;;;;;;1.57;1.47;;;26.80;33.30;;;;;;10266122;28;20243;-73
2023/09/20 11:13:19;;;;;;;1.60;1.50;;;26.90;32.50;;;;;;10257758;28;20694;-73
2023/09/20 11:18:23;;;;;;;1.60;1.50;;;27.00;33.20;;;;;;10254011;28;20231;-73
2023/09/20 11:23:29;;;;;;;1.43;1.33;;;27.00;33.00;;;;;;10261375;28;20323;-72
2023/09/20 11:28:34;;;;;;;1.93;1.50;;;27.10;32.40;;;;;;10257411;28;21036;-72
2023/09/20 11:33:39;;;;;;;1.50;1.40;;;27.20;33.00;;;;;;10256306;28;20246;-72
2023/09/20 11:38:44;;;;;;;1.43;1.33;;;27.30;32.20;;;;;;10259215;28;20706;-73
2023/09/20 11:43:47;;;;;;;2.00;1.30;;;27.30;31.30;;;;;;10261511;28;20227;-72
2023/09/20 11:48:50;;;;;;;1.30;1.17;;;27.40;32.20;;;;;;10249216;28;20228;-73
2023/09/20 11:53:56;;;;;;;3.07;1.40;;;27.40;32.10;;;;;;10244301;28;20227;-73
2023/09/20 11:59:00;;;;;;;1.50;1.40;;;27.40;30.60;;;;;;10242772;28;20239;-73
2023/09/20 12:04:03;;;;;;;1.40;1.30;;;27.40;32.40;;;;;;10241801;28;20302;-73
2023/09/20 12:09:09;;;;;;;1.60;1.27;;;27.40;31.40;;;;;;10244074;28;20231;-73
2023/09/20 12:14:14;;;;;;;1.33;1.30;;;27.40;30.20;;;;;;10238244;28;20343;-73
2023/09/20 12:19:18;;;;;;;1.30;1.20;;;27.30;31.30;;;;;;10242209;28;20220;-73
2023/09/20 12:24:24;;;;;;;1.77;1.40;;;27.30;31.20;;;;;;10243474;28;20499;-73
2023/09/20 12:29:27;;;;;;;1.40;1.30;;;27.40;30.40;;;;;;10240162;28;20237;-72
2023/09/20 12:34:31;;;;;;;1.97;1.40;;;27.40;30.90;;;;;;10247132;28;20277;-73
2023/09/20 12:39:38;;;;;;;1.10;1.10;;;27.40;30.70;;;;;;10262346;28;20231;-73
2023/09/20 12:44:44;;;;;;;1.30;1.20;;;27.40;29.90;;;;;;10264265;28;20251;-73
2023/09/20 12:49:47;;;;;;;1.20;1.10;;;27.40;30.70;;;;;;10262449;28;20306;-73
2023/09/20 12:54:52;;;;;;;1.40;1.30;;;27.40;30.30;;;;;;10264430;28;20854;-73
2023/09/20 12:59:57;;;;;;;1.70;1.37;;;27.40;30.30;;;;;;10261573;28;20311;-73
2023/09/20 13:05:00;;;;;;;1.43;1.27;;;27.40;30.90;;;;;;10261904;28;20231;-73
2023/09/20 13:10:08;;;;;;;1.70;1.20;;;27.40;30.70;;;;;;10265517;28;20247;-74
2023/09/20 13:15:14;;;;;;;1.53;1.20;;;27.50;30.00;;;;;;10262637;28;20800;-74
2023/09/20 13:20:18;;;;;;;1.13;1.13;;;27.50;30.00;;;;;;10258579;28;20228;-74
2023/09/20 13:25:26;;;;;;;1.60;1.20;;;27.50;30.00;;;;;;10261072;28;20997;-74
2023/09/20 13:30:29;;;;;;;1.40;1.30;;;27.60;30.00;;;;;;10259925;28;20231;-74
2023/09/20 13:35:34;;;;;;;1.50;1.40;;;27.60;30.00;;;;;;10264821;28;20244;-74
2023/09/20 13:40:40;;;;;;;1.33;1.30;;;27.60;30.00;;;;;;10264841;28;20223;-74
2023/09/20 13:45:43;;;;;;;1.23;1.13;;;27.60;30.00;;;;;;10270547;28;20319;-74
2023/09/20 13:50:47;;;;;;;1.50;1.40;;;27.60;30.00;;;;;;10260437;28;20236;-74
2023/09/20 13:56:02;;;;;;;1.30;1.20;;;27.70;29.90;;;;;;10271595;28;20268;-74
2023/09/20 14:01:05;;;;;;;2.63;1.17;;;27.70;28.90;;;;;;10273680;28;20255;-74
2023/09/20 14:06:08;;;;;;;1.07;1.00;;;27.70;29.50;;;;;;10272211;28;20234;-74
2023/09/20 14:11:14;;;;;;;0.93;0.93;;;27.70;29.70;;;;;;10269018;28;20246;-74
2023/09/20 14:16:17;;;;;;;1.40;1.30;;;27.80;29.30;;;;;;10272908;28;20246;-74
2023/09/20 14:21:21;;;;;;;1.20;1.20;;;27.80;29.40;;;;;;10267625;28;20227;-73
2023/09/20 14:26:27;;;;;;;1.77;1.10;;;27.80;29.20;;;;;;10267481;28;20263;-73
2023/09/20 14:31:30;;;;;;;1.63;1.40;;;27.90;28.70;;;;;;10263755;28;20283;-74
2023/09/20 14:36:34;;;;;;;1.40;1.30;;;27.90;28.90;;;;;;10267611;28;20604;-73
2023/09/20 14:41:38;;;;;;;1.30;1.20;;;27.80;28.90;;;;;;10269112;28;20235;-73
2023/09/20 14:46:43;;;;;;;1.20;1.10;;;27.80;28.50;;;;;;10269533;28;20232;-74
2023/09/20 14:51:47;;;;;;;1.23;1.20;;;27.80;28.80;;;;;;10269551;28;20221;-74
2023/09/20 14:56:52;;;;;;;1.30;1.20;;;27.80;28.70;;;;;;10270717;28;20836;-74
2023/09/20 15:01:56;;;;;;;1.20;1.10;;;27.80;28.40;;;;;;10270846;28;20728;-74
2023/09/20 15:06:59;;;;;;;1.30;1.20;;;27.80;28.70;;;;;;10267073;28;20227;-73
2023/09/20 15:12:04;;;;;;;1.83;1.10;;;27.80;28.70;;;;;;10261837;28;20224;-73
2023/09/20 15:17:07;;;;;;;2.50;1.20;;;27.80;28.10;;;;;;10273767;28;20239;-73
2023/09/20 15:22:12;;;;;;;1.40;1.30;;;27.70;28.70;;;;;;10267206;28;20227;-74
2023/09/20 15:27:17;;;;;;;1.37;1.27;;;27.80;28.50;;;;;;10263847;28;20919;-73
2023/09/20 15:32:20;;;;;;;1.30;1.20;;;27.80;28.00;;;;;;10265119;28;20776;-73
2023/09/20 15:37:26;;;;;;;1.33;1.23;;;27.80;28.30;;;;;;10256625;28;20314;-74
2023/09/20 15:42:31;;;;;;;1.30;1.20;;;27.70;28.20;;;;;;10270703;28;20720;-74
2023/09/20 15:47:34;;;;;;;1.30;1.20;;;27.70;28.20;;;;;;10263100;28;20278;-74
2023/09/20 15:52:39;;;;;;;1.43;1.33;;;27.70;28.50;;;;;;10265352;28;20274;-75
2023/09/20 15:57:45;;;;;;;1.30;1.20;;;27.70;28.40;;;;;;10263576;28;20264;-72
2023/09/20 16:02:49;;;;;;;1.93;1.30;;;27.60;28.20;;;;;;10263699;28;20805;-73
2023/09/20 16:07:53;;;;;;;1.30;1.20;;;27.60;28.60;;;;;;10265368;28;20238;-73
2023/09/20 16:12:57;;;;;;;1.47;1.37;;;27.50;28.50;;;;;;10263178;28;20219;-73
2023/09/20 16:18:03;;;;;;;1.57;1.47;;;27.50;28.20;;;;;;10260277;28;20230;-73
2023/09/20 16:23:07;;;;;;;1.50;1.40;;;27.40;28.40;;;;;;10255171;28;20302;-73
2023/09/20 16:28:12;;;;;;;2.27;1.20;;;27.30;28.60;;;;;;10263346;28;20297;-74
2023/09/20 16:33:15;;;;;;;2.30;1.20;;;27.30;28.40;;;;;;10262204;28;20231;-73
2023/09/20 16:38:19;;;;;;;1.40;1.30;;;27.30;28.60;;;;;;10255556;28;20215;-74
2023/09/20 16:43:26;;;;;;;1.60;1.50;;;27.30;28.60;;;;;;10263877;28;20231;-76
2023/09/20 16:48:29;;;;;;;3.53;1.50;;;27.30;28.60;;;;;;10258818;28;20330;-77
2023/09/20 16:53:34;;;;;;;2.83;1.30;;;27.20;28.60;;;;;;10262561;28;20242;-76
2023/09/20 16:58:40;;;;;;;1.37;1.20;;;27.10;28.70;;;;;;10261831;28;20307;-79
2023/09/20 17:03:43;;;;;;;3.03;1.60;;;27.20;29.10;;;;;;10265654;28;20331;-75
2023/09/20 17:08:47;;;;;;;7.30;1.40;;;27.20;29.30;;;;;;10269507;28;20725;-72
2023/09/20 17:13:52;;;;;;;5.53;1.60;;;27.20;29.50;;;;;;10273117;28;20235;-72
2023/09/20 17:18:55;;;;;;;2.90;1.60;;;27.10;29.70;;;;;;10275867;28;20239;-71
2023/09/20 17:24:03;;;;;;;1.70;1.60;;;27.10;29.80;;;;;;10268085;28;20242;-72
2023/09/20 17:29:08;;;;;;;1.77;1.47;;;27.00;29.70;;;;;;10270415;28;20231;-73
2023/09/20 17:34:12;;;;;;;2.07;1.60;;;26.90;29.70;;;;;;10271934;28;20338;-74
2023/09/20 17:39:16;;;;;;;6.87;1.70;;;26.90;29.70;;;;;;10266399;28;20228;-73
2023/09/20 17:44:21;;;;;;;4.23;1.57;;;26.80;29.60;;;;;;10268388;28;20702;-73
2023/09/20 17:49:24;;;;;;;4.10;1.63;;;26.70;29.60;;;;;;10278414;28;20710;-73
2023/09/20 17:54:28;;;;;;;2.70;1.60;;;26.60;29.50;;;;;;10273158;28;20231;-73
2023/09/20 17:59:32;;;;;;;1.90;1.37;;;26.50;29.50;;;;;;10274772;28;20235;-73
2023/09/20 18:04:36;;;;;;;2.83;1.50;;;26.30;29.40;;;;;;10270708;28;20740;-74
2023/09/20 18:09:39;;;;;;;2.27;1.40;;;26.20;29.60;;;;;;10271487;28;20250;-74
2023/09/20 18:14:48;;;;;;;2.67;1.50;;;26.10;29.80;;;;;;10265890;28;20236;-74
2023/09/20 18:19:53;;;;;;;1.70;1.60;;;26.00;30.00;;;;;;10274870;28;20232;-74
2023/09/20 18:24:58;;;;;;;2.13;2.00;;;25.90;30.00;;;;;;10266840;28;20240;-72
2023/09/20 18:30:02;;;;;;;2.63;2.10;;;25.70;30.00;;;;;;10271996;28;20314;-72
2023/09/20 18:35:06;;;;;;;1.93;1.60;;;25.50;30.60;;;;;;10273160;28;20242;-72
2023/09/20 18:40:10;;;;;;;2.40;2.20;;;25.30;30.50;;;;;;10270664;28;20243;-73
2023/09/20 18:45:15;;;;;;;2.73;2.20;;;25.20;30.60;;;;;;10261983;28;20234;-73
2023/09/20 18:50:22;;;;;;;3.20;2.60;;;24.90;30.90;;;;;;10260580;28;20235;-73
2023/09/20 18:55:26;;;;;;;2.57;2.37;;;24.60;30.90;;;;;;10261023;28;20619;-73
2023/09/20 19:00:32;;;;;;;2.40;2.20;;;24.30;31.40;;;;;;10267816;28;20236;-73
2023/09/20 19:05:39;;;;;;;2.67;2.10;;;24.10;32.10;;;;;;10262913;28;20232;-72
2023/09/20 19:10:43;;;;;;;2.67;2.00;;;24.10;32.00;;;;;;10255107;28;20232;-73
2023/09/20 19:15:48;;;;;;;2.93;2.53;;;24.00;31.80;;;;;;10263926;28;20255;-72
2023/09/20 19:20:52;;;;;;;3.23;2.07;;;23.90;32.40;;;;;;10261493;28;20298;-72
2023/09/20 19:25:56;;;;;;;2.80;2.53;;;23.70;32.20;;;;;;10260410;28;20232;-72
2023/09/20 19:31:01;;;;;;;4.63;2.50;;;23.60;32.50;;;;;;10266249;28;20260;-72
2023/09/20 19:36:08;;;;;;;2.40;2.20;;;23.50;32.80;;;;;;10260538;28;20318;-73
2023/09/20 19:41:12;;;;;;;3.13;2.80;;;23.40;32.60;;;;;;10265756;28;20329;-73
2023/09/20 19:46:19;;;;;;;2.43;2.23;;;23.30;32.80;;;;;;10263357;28;20232;-75
2023/09/20 19:51:23;;;;;;;2.80;2.60;;;23.30;33.40;;;;;;10258261;28;20232;-74
2023/09/20 19:56:32;;;;;;;3.00;2.30;;;23.20;33.00;;;;;;10264152;28;20231;-75
2023/09/20 20:01:39;;;;;;;2.57;2.37;;;23.20;33.00;;;;;;10260046;28;20259;-75
2023/09/20 20:06:43;;;;;;;2.93;2.67;;;23.10;33.30;;;;;;10261540;28;20242;-75
2023/09/20 20:11:46;;;;;;;2.50;2.30;;;23.10;33.10;;;;;;10254842;28;20323;-75
2023/09/20 20:16:51;;;;;;;4.20;2.47;;;22.90;33.00;;;;;;10261368;28;20247;-74
2023/09/20 20:21:55;;;;;;;3.00;2.53;;;22.80;33.60;;;;;;10262162;28;20706;-75
2023/09/20 20:26:59;;;;;;;2.57;2.37;;;22.60;33.30;;;;;;10263292;28;20385;-75
2023/09/20 20:32:04;;;;;;;2.07;1.97;;;22.50;33.40;;;;;;10266516;28;21180;-75
2023/09/20 20:37:07;;;;;;;2.03;1.90;;;22.40;33.90;;;;;;10257153;28;20240;-74
2023/09/20 20:42:11;;;;;;;2.70;2.50;;;22.40;33.80;;;;;;10252155;28;20230;-75
2023/09/20 20:47:15;;;;;;;3.50;2.90;;;22.40;33.80;;;;;;10253405;28;20235;-74
2023/09/20 20:52:19;;;;;;;3.20;3.00;;;22.30;34.20;;;;;;10256513;28;20223;-74
2023/09/20 20:57:22;;;;;;;2.53;2.33;;;22.20;33.90;;;;;;10249044;28;20242;-75
2023/09/20 21:02:28;;;;;;;2.30;2.20;;;22.10;34.50;;;;;;10256694;28;20230;-76
2023/09/20 21:07:31;;;;;;;2.70;2.50;;;22.10;34.20;;;;;;10250868;28;20239;-74
2023/09/20 21:12:34;;;;;;;2.63;2.43;;;22.00;33.90;;;;;;10242631;28;20224;-74
2023/09/20 21:17:40;;;;;;;2.43;2.23;;;22.00;34.00;;;;;;10242856;28;20243;-74
2023/09/20 21:22:44;;;;;;;2.57;2.37;;;22.00;34.50;;;;;;10253613;28;20244;-75
2023/09/20 21:27:47;;;;;;;2.30;2.20;;;21.90;34.10;;;;;;10252743;28;20253;-76
2023/09/20 21:32:53;;;;;;;4.63;2.33;;;21.90;34.00;;;;;;10254325;28;20281;-76
2023/09/20 21:37:57;;;;;;;2.60;2.40;;;21.90;34.40;;;;;;10253726;28;20234;-76
2023/09/20 21:43:02;;;;;;;2.30;2.20;;;21.90;34.20;;;;;;10253621;28;20310;-76
2023/09/20 21:48:07;;;;;;;2.50;2.30;;;21.80;34.40;;;;;;10249846;28;21221;-76
2023/09/20 21:53:11;;;;;;;2.40;2.20;;;21.80;34.70;;;;;;10250736;28;20270;-76
2023/09/20 21:58:16;;;;;;;2.50;2.30;;;21.70;34.20;;;;;;10247664;28;20289;-76
2023/09/20 22:03:21;;;;;;;4.37;2.40;;;21.50;34.40;;;;;;10259364;28;20319;-76
2023/09/20 22:08:24;;;;;;;2.87;2.60;;;21.30;34.90;;;;;;10258085;28;20239;-76
2023/09/20 22:13:28;;;;;;;2.43;2.20;;;21.10;34.70;;;;;;10258812;28;20302;-76
2023/09/20 22:18:33;;;;;;;2.63;2.30;;;21.00;34.80;;;;;;10256625;28;20230;-76
2023/09/20 22:23:37;;;;;;;2.70;2.50;;;20.90;35.20;;;;;;10259642;28;20243;-76
2023/09/20 22:28:40;;;;;;;2.97;2.77;;;20.90;35.30;;;;;;10264105;28;20326;-76
2023/09/20 22:33:45;;;;;;;2.93;2.73;;;20.80;35.30;;;;;;10266867;28;20945;-76
2023/09/20 22:38:49;;;;;;;4.77;2.73;;;20.80;35.80;;;;;;10264208;28;20258;-76
2023/09/20 22:43:52;;;;;;;2.63;2.43;;;20.80;35.30;;;;;;10264696;28;20360;-76
2023/09/20 22:48:57;;;;;;;2.70;2.50;;;20.80;35.50;;;;;;10261050;28;20960;-76
2023/09/20 22:54:01;;;;;;;2.60;2.40;;;20.80;35.80;;;;;;10263152;28;20230;-75
2023/09/20 22:59:07;;;;;;;4.03;2.40;;;20.80;35.60;;;;;;10264119;28;20934;-75
2023/09/20 23:04:12;;;;;;;2.80;2.60;;;20.70;35.50;;;;;;10265236;28;20238;-75
2023/09/20 23:09:17;;;;;;;3.03;2.50;;;20.70;36.00;;;;;;10260088;28;20230;-75
2023/09/20 23:14:20;;;;;;;2.83;2.63;;;20.70;35.70;;;;;;10263259;28;20239;-76
2023/09/20 23:19:25;;;;;;;3.43;2.60;;;20.50;35.60;;;;;;10258843;28;20238;-76
2023/09/20 23:24:29;;;;;;;2.70;2.50;;;20.40;36.50;;;;;;10261218;28;20244;-76
2023/09/20 23:29:33;;;;;;;2.83;2.60;;;20.30;36.20;;;;;;10258903;28;20245;-76
2023/09/20 23:34:38;;;;;;;3.00;2.70;;;20.30;36.40;;;;;;10262903;28;20294;-76
2023/09/20 23:39:41;;;;;;;2.63;2.43;;;20.30;36.80;;;;;;10261092;28;20255;-75
2023/09/20 23:44:45;;;;;;;2.43;2.23;;;20.20;36.40;;;;;;10256642;28;20234;-76
2023/09/20 23:49:51;;;;;;;2.93;2.60;;;20.20;36.10;;;;;;10259984;28;20524;-76
2023/09/20 23:54:54;;;;;;;3.37;2.57;;;20.30;36.80;;;;;;10257044;28;20232;-75
2023/09/20 23:59:58;;;;;;;2.70;2.50;;;20.20;36.10;;;;;;10265844;28;20314;-76
